sensor_id;sensor_type;location;lat;lon;timestamp;P1;durP1;ratioP1;P2;durP2;ratioP2
76752;SDS011;65687;51.308;16.916;2023-05-10T00:00:54;5.80;;;4.40;;
76752;SDS011;65687;51.308;16.916;2023-05-10T00:05:56;10.20;;;7.20;;
76752;SDS011;65687;51.308;16.916;2023-05-10T00:10:58;10.60;;;6.80;;
76752;SDS011;65687;51.308;16.916;2023-05-10T00:15:59;9.90;;;6.40;;
76752;SDS011;65687;51.308;16.916;2023-05-10T00:21:01;7.90;;;4.40;;
76752;SDS011;65687;51.308;16.916;2023-05-10T00:26:02;6.70;;;5.00;;
76752;SDS011;65687;51.308;16.916;2023-05-10T00:31:04;7.50;;;4.20;;
76752;SDS011;65687;51.308;16.916;2023-05-10T00:36:05;8.50;;;5.10;;
76752;SDS011;65687;51.308;16.916;2023-05-10T00:41:08;7.00;;;4.80;;
76752;SDS011;65687;51.308;16.916;2023-05-10T00:46:10;7.70;;;4.80;;
76752;SDS011;65687;51.308;16.916;2023-05-10T00:51:12;8.10;;;4.20;;
76752;SDS011;65687;51.308;16.916;2023-05-10T00:56:15;9.70;;;6.30;;
76752;SDS011;65687;51.308;16.916;2023-05-10T01:01:17;12.20;;;6.60;;
76752;SDS011;65687;51.308;16.916;2023-05-10T01:06:18;8.50;;;5.80;;
76752;SDS011;65687;51.308;16.916;2023-05-10T01:11:20;8.30;;;5.20;;
76752;SDS011;65687;51.308;16.916;2023-05-10T01:16:22;7.80;;;5.40;;
76752;SDS011;65687;51.308;16.916;2023-05-10T01:27:15;7.80;;;4.70;;
76752;SDS011;65687;51.308;16.916;2023-05-10T01:43:11;6.90;;;4.60;;
76752;SDS011;65687;51.308;16.916;2023-05-10T01:48:27;6.50;;;4.40;;
76752;SDS011;65687;51.308;16.916;2023-05-10T01:58:32;6.50;;;4.60;;
76752;SDS011;65687;51.308;16.916;2023-05-10T02:03:36;8.10;;;5.30;;
76752;SDS011;65687;51.308;16.916;2023-05-10T02:08:39;9.90;;;6.40;;
76752;SDS011;65687;51.308;16.916;2023-05-10T02:18:44;6.80;;;4.50;;
76752;SDS011;65687;51.308;16.916;2023-05-10T02:23:48;5.70;;;3.70;;
76752;SDS011;65687;51.308;16.916;2023-05-10T02:28:53;6.90;;;4.70;;
76752;SDS011;65687;51.308;16.916;2023-05-10T02:33:56;9.40;;;6.10;;
76752;SDS011;65687;51.308;16.916;2023-05-10T02:38:59;15.80;;;9.40;;
76752;SDS011;65687;51.308;16.916;2023-05-10T02:44:02;6.50;;;4.00;;
76752;SDS011;65687;51.308;16.916;2023-05-10T02:49:07;8.50;;;4.80;;
76752;SDS011;65687;51.308;16.916;2023-05-10T02:54:11;11.70;;;5.60;;
76752;SDS011;65687;51.308;16.916;2023-05-10T02:59:16;5.10;;;3.20;;
76752;SDS011;65687;51.308;16.916;2023-05-10T03:04:18;14.00;;;8.30;;
76752;SDS011;65687;51.308;16.916;2023-05-10T03:09:20;4.60;;;3.70;;
76752;SDS011;65687;51.308;16.916;2023-05-10T03:19:56;5.10;;;4.00;;
76752;SDS011;65687;51.308;16.916;2023-05-10T03:25:06;8.20;;;4.00;;
76752;SDS011;65687;51.308;16.916;2023-05-10T03:30:10;7.10;;;4.20;;
76752;SDS011;65687;51.308;16.916;2023-05-10T03:35:13;5.00;;;3.80;;
76752;SDS011;65687;51.308;16.916;2023-05-10T03:40:15;7.20;;;4.00;;
76752;SDS011;65687;51.308;16.916;2023-05-10T03:45:17;5.70;;;3.60;;
76752;SDS011;65687;51.308;16.916;2023-05-10T03:50:18;7.40;;;4.30;;
76752;SDS011;65687;51.308;16.916;2023-05-10T03:55:20;5.70;;;3.60;;
76752;SDS011;65687;51.308;16.916;2023-05-10T04:00:21;8.10;;;4.40;;
76752;SDS011;65687;51.308;16.916;2023-05-10T04:05:23;8.20;;;4.10;;
76752;SDS011;65687;51.308;16.916;2023-05-10T04:10:25;5.80;;;4.40;;
76752;SDS011;65687;51.308;16.916;2023-05-10T04:15:26;8.70;;;3.80;;
76752;SDS011;65687;51.308;16.916;2023-05-10T04:20:28;7.50;;;3.90;;
76752;SDS011;65687;51.308;16.916;2023-05-10T04:25:29;7.10;;;4.10;;
76752;SDS011;65687;51.308;16.916;2023-05-10T04:30:31;7.00;;;4.40;;
76752;SDS011;65687;51.308;16.916;2023-05-10T04:35:32;6.60;;;4.20;;
76752;SDS011;65687;51.308;16.916;2023-05-10T04:40:33;6.50;;;3.70;;
76752;SDS011;65687;51.308;16.916;2023-05-10T04:45:35;4.90;;;2.80;;
76752;SDS011;65687;51.308;16.916;2023-05-10T04:50:36;7.80;;;4.40;;
76752;SDS011;65687;51.308;16.916;2023-05-10T04:55:38;4.50;;;2.80;;
76752;SDS011;65687;51.308;16.916;2023-05-10T05:00:39;4.70;;;3.30;;
76752;SDS011;65687;51.308;16.916;2023-05-10T05:05:41;6.50;;;4.40;;
76752;SDS011;65687;51.308;16.916;2023-05-10T05:10:42;6.60;;;4.20;;
76752;SDS011;65687;51.308;16.916;2023-05-10T05:15:44;9.20;;;5.00;;
76752;SDS011;65687;51.308;16.916;2023-05-10T05:20:45;7.80;;;4.10;;
76752;SDS011;65687;51.308;16.916;2023-05-10T05:25:47;7.00;;;4.70;;
76752;SDS011;65687;51.308;16.916;2023-05-10T05:30:48;7.10;;;4.10;;
76752;SDS011;65687;51.308;16.916;2023-05-10T05:35:50;7.90;;;4.40;;
76752;SDS011;65687;51.308;16.916;2023-05-10T05:40:51;6.50;;;3.30;;
76752;SDS011;65687;51.308;16.916;2023-05-10T05:45:53;7.20;;;4.60;;
76752;SDS011;65687;51.308;16.916;2023-05-10T05:50:55;6.20;;;4.50;;
76752;SDS011;65687;51.308;16.916;2023-05-10T05:55:58;7.10;;;4.30;;
76752;SDS011;65687;51.308;16.916;2023-05-10T06:00:59;7.70;;;4.30;;
76752;SDS011;65687;51.308;16.916;2023-05-10T06:06:01;7.00;;;4.30;;
76752;SDS011;65687;51.308;16.916;2023-05-10T06:11:02;6.50;;;3.70;;
76752;SDS011;65687;51.308;16.916;2023-05-10T06:16:05;6.80;;;4.10;;
76752;SDS011;65687;51.308;16.916;2023-05-10T06:21:07;5.40;;;4.50;;
76752;SDS011;65687;51.308;16.916;2023-05-10T06:26:08;5.50;;;3.40;;
76752;SDS011;65687;51.308;16.916;2023-05-10T06:31:10;5.80;;;3.70;;
76752;SDS011;65687;51.308;16.916;2023-05-10T06:36:12;7.30;;;4.30;;
76752;SDS011;65687;51.308;16.916;2023-05-10T06:41:14;5.70;;;3.70;;
76752;SDS011;65687;51.308;16.916;2023-05-10T06:46:15;5.50;;;3.80;;
76752;SDS011;65687;51.308;16.916;2023-05-10T06:51:17;5.80;;;3.20;;
76752;SDS011;65687;51.308;16.916;2023-05-10T06:56:19;6.70;;;3.60;;
76752;SDS011;65687;51.308;16.916;2023-05-10T07:01:22;5.30;;;2.90;;
76752;SDS011;65687;51.308;16.916;2023-05-10T07:06:24;6.60;;;3.60;;
76752;SDS011;65687;51.308;16.916;2023-05-10T07:11:25;4.00;;;2.70;;
76752;SDS011;65687;51.308;16.916;2023-05-10T07:16:27;4.10;;;3.20;;
76752;SDS011;65687;51.308;16.916;2023-05-10T07:21:29;4.10;;;2.60;;
76752;SDS011;65687;51.308;16.916;2023-05-10T07:26:32;6.10;;;2.90;;
76752;SDS011;65687;51.308;16.916;2023-05-10T07:31:33;5.50;;;3.20;;
76752;SDS011;65687;51.308;16.916;2023-05-10T07:36:35;6.40;;;3.40;;
76752;SDS011;65687;51.308;16.916;2023-05-10T07:41:37;5.60;;;3.20;;
76752;SDS011;65687;51.308;16.916;2023-05-10T07:46:39;3.00;;;2.20;;
76752;SDS011;65687;51.308;16.916;2023-05-10T07:51:41;3.90;;;2.50;;
76752;SDS011;65687;51.308;16.916;2023-05-10T07:56:43;4.90;;;3.40;;
76752;SDS011;65687;51.308;16.916;2023-05-10T08:01:48;6.00;;;3.80;;
76752;SDS011;65687;51.308;16.916;2023-05-10T08:06:49;3.70;;;2.90;;
76752;SDS011;65687;51.308;16.916;2023-05-10T08:11:51;5.90;;;3.30;;
76752;SDS011;65687;51.308;16.916;2023-05-10T08:16:53;4.80;;;3.50;;
76752;SDS011;65687;51.308;16.916;2023-05-10T08:21:54;3.60;;;2.50;;
76752;SDS011;65687;51.308;16.916;2023-05-10T08:26:56;4.20;;;2.80;;
76752;SDS011;65687;51.308;16.916;2023-05-10T08:31:58;5.20;;;3.50;;
76752;SDS011;65687;51.308;16.916;2023-05-10T08:37:00;4.00;;;2.50;;
76752;SDS011;65687;51.308;16.916;2023-05-10T08:42:01;4.80;;;3.80;;
76752;SDS011;65687;51.308;16.916;2023-05-10T08:47:06;4.00;;;3.00;;
76752;SDS011;65687;51.308;16.916;2023-05-10T08:52:08;6.00;;;3.40;;
76752;SDS011;65687;51.308;16.916;2023-05-10T08:57:14;5.40;;;3.00;;
76752;SDS011;65687;51.308;16.916;2023-05-10T09:02:16;5.60;;;2.80;;
76752;SDS011;65687;51.308;16.916;2023-05-10T09:07:19;5.20;;;3.10;;
76752;SDS011;65687;51.308;16.916;2023-05-10T09:17:23;4.30;;;2.60;;
76752;SDS011;65687;51.308;16.916;2023-05-10T09:22:26;6.90;;;2.90;;
76752;SDS011;65687;51.308;16.916;2023-05-10T09:27:28;5.10;;;2.30;;
76752;SDS011;65687;51.308;16.916;2023-05-10T09:48:09;3.50;;;2.50;;
76752;SDS011;65687;51.308;16.916;2023-05-10T09:53:10;4.70;;;3.10;;
76752;SDS011;65687;51.308;16.916;2023-05-10T09:58:17;4.50;;;2.60;;
76752;SDS011;65687;51.308;16.916;2023-05-10T10:08:25;3.40;;;2.50;;
76752;SDS011;65687;51.308;16.916;2023-05-10T10:13:28;3.20;;;2.60;;
76752;SDS011;65687;51.308;16.916;2023-05-10T10:18:31;3.90;;;2.90;;
76752;SDS011;65687;51.308;16.916;2023-05-10T10:34:15;4.90;;;2.40;;
76752;SDS011;65687;51.308;16.916;2023-05-10T10:39:23;4.30;;;2.70;;
76752;SDS011;65687;51.308;16.916;2023-05-10T11:10:51;4.80;;;2.60;;
76752;SDS011;65687;51.308;16.916;2023-05-10T11:21:22;3.50;;;2.70;;
76752;SDS011;65687;51.308;16.916;2023-05-10T11:26:24;3.00;;;2.60;;
76752;SDS011;65687;51.308;16.916;2023-05-10T11:31:27;3.20;;;2.30;;
76752;SDS011;65687;51.308;16.916;2023-05-10T11:36:32;4.50;;;2.40;;
76752;SDS011;65687;51.308;16.916;2023-05-10T11:41:35;3.40;;;2.40;;
76752;SDS011;65687;51.308;16.916;2023-05-10T11:46:37;3.60;;;2.30;;
76752;SDS011;65687;51.308;16.916;2023-05-10T11:56:40;4.20;;;2.70;;
76752;SDS011;65687;51.308;16.916;2023-05-10T12:01:42;3.30;;;2.60;;
76752;SDS011;65687;51.308;16.916;2023-05-10T12:06:44;3.20;;;2.50;;
76752;SDS011;65687;51.308;16.916;2023-05-10T12:11:47;6.60;;;2.60;;
76752;SDS011;65687;51.308;16.916;2023-05-10T12:21:52;3.30;;;2.40;;
76752;SDS011;65687;51.308;16.916;2023-05-10T12:31:56;4.00;;;2.70;;
76752;SDS011;65687;51.308;16.916;2023-05-10T12:36:59;2.80;;;2.10;;
76752;SDS011;65687;51.308;16.916;2023-05-10T12:42:01;4.40;;;2.80;;
76752;SDS011;65687;51.308;16.916;2023-05-10T12:52:05;3.10;;;2.30;;
76752;SDS011;65687;51.308;16.916;2023-05-10T12:57:06;3.60;;;2.70;;
76752;SDS011;65687;51.308;16.916;2023-05-10T13:07:10;3.50;;;3.00;;
76752;SDS011;65687;51.308;16.916;2023-05-10T13:17:14;2.80;;;2.20;;
76752;SDS011;65687;51.308;16.916;2023-05-10T13:22:16;2.90;;;2.60;;
76752;SDS011;65687;51.308;16.916;2023-05-10T13:27:17;3.00;;;2.20;;
76752;SDS011;65687;51.308;16.916;2023-05-10T13:32:19;2.40;;;1.80;;
76752;SDS011;65687;51.308;16.916;2023-05-10T13:37:21;2.70;;;2.00;;
76752;SDS011;65687;51.308;16.916;2023-05-10T13:42:23;3.00;;;2.40;;
76752;SDS011;65687;51.308;16.916;2023-05-10T13:47:25;2.50;;;1.90;;
76752;SDS011;65687;51.308;16.916;2023-05-10T13:57:28;3.40;;;2.30;;
76752;SDS011;65687;51.308;16.916;2023-05-10T14:02:33;3.10;;;2.30;;
76752;SDS011;65687;51.308;16.916;2023-05-10T14:07:34;3.50;;;1.90;;
76752;SDS011;65687;51.308;16.916;2023-05-10T14:12:36;3.30;;;2.10;;
76752;SDS011;65687;51.308;16.916;2023-05-10T14:17:38;3.20;;;2.10;;
76752;SDS011;65687;51.308;16.916;2023-05-10T14:22:39;2.70;;;2.10;;
76752;SDS011;65687;51.308;16.916;2023-05-10T14:27:41;4.20;;;3.20;;
76752;SDS011;65687;51.308;16.916;2023-05-10T14:32:43;3.70;;;2.20;;
76752;SDS011;65687;51.308;16.916;2023-05-10T14:37:45;4.20;;;2.60;;
76752;SDS011;65687;51.308;16.916;2023-05-10T14:42:46;2.90;;;2.20;;
76752;SDS011;65687;51.308;16.916;2023-05-10T14:47:48;2.90;;;2.10;;
76752;SDS011;65687;51.308;16.916;2023-05-10T14:52:50;2.70;;;2.10;;
76752;SDS011;65687;51.308;16.916;2023-05-10T14:57:53;3.10;;;2.00;;
76752;SDS011;65687;51.308;16.916;2023-05-10T15:02:55;2.50;;;2.00;;
76752;SDS011;65687;51.308;16.916;2023-05-10T15:07:57;3.40;;;2.20;;
76752;SDS011;65687;51.308;16.916;2023-05-10T15:12:59;3.80;;;2.20;;
76752;SDS011;65687;51.308;16.916;2023-05-10T15:18:01;3.10;;;2.30;;
76752;SDS011;65687;51.308;16.916;2023-05-10T15:23:03;2.50;;;1.80;;
76752;SDS011;65687;51.308;16.916;2023-05-10T15:28:07;2.50;;;1.90;;
76752;SDS011;65687;51.308;16.916;2023-05-10T15:33:08;3.20;;;2.00;;
76752;SDS011;65687;51.308;16.916;2023-05-10T15:38:10;2.70;;;2.00;;
76752;SDS011;65687;51.308;16.916;2023-05-10T15:43:11;2.50;;;2.00;;
76752;SDS011;65687;51.308;16.916;2023-05-10T15:48:13;2.60;;;1.90;;
76752;SDS011;65687;51.308;16.916;2023-05-10T15:53:18;2.40;;;2.00;;
76752;SDS011;65687;51.308;16.916;2023-05-10T15:58:20;2.80;;;1.80;;
76752;SDS011;65687;51.308;16.916;2023-05-10T16:03:22;3.00;;;2.20;;
76752;SDS011;65687;51.308;16.916;2023-05-10T16:08:23;3.00;;;2.00;;
76752;SDS011;65687;51.308;16.916;2023-05-10T16:13:25;2.90;;;2.00;;
76752;SDS011;65687;51.308;16.916;2023-05-10T16:18:26;2.40;;;1.60;;
76752;SDS011;65687;51.308;16.916;2023-05-10T16:23:28;2.60;;;2.20;;
76752;SDS011;65687;51.308;16.916;2023-05-10T16:28:30;2.70;;;2.10;;
76752;SDS011;65687;51.308;16.916;2023-05-10T16:33:32;2.90;;;2.00;;
76752;SDS011;65687;51.308;16.916;2023-05-10T16:38:33;3.20;;;2.00;;
76752;SDS011;65687;51.308;16.916;2023-05-10T16:43:35;3.60;;;2.10;;
76752;SDS011;65687;51.308;16.916;2023-05-10T16:48:37;2.70;;;2.10;;
76752;SDS011;65687;51.308;16.916;2023-05-10T16:53:38;2.90;;;2.00;;
76752;SDS011;65687;51.308;16.916;2023-05-10T16:58:40;3.50;;;2.30;;
76752;SDS011;65687;51.308;16.916;2023-05-10T17:03:41;3.80;;;2.30;;
76752;SDS011;65687;51.308;16.916;2023-05-10T17:13:45;3.30;;;2.30;;
76752;SDS011;65687;51.308;16.916;2023-05-10T17:23:48;3.80;;;2.20;;
76752;SDS011;65687;51.308;16.916;2023-05-10T17:28:51;2.60;;;1.90;;
76752;SDS011;65687;51.308;16.916;2023-05-10T17:33:54;3.30;;;2.30;;
76752;SDS011;65687;51.308;16.916;2023-05-10T17:38:56;4.20;;;2.30;;
76752;SDS011;65687;51.308;16.916;2023-05-10T17:43:57;3.70;;;2.40;;
76752;SDS011;65687;51.308;16.916;2023-05-10T17:48:59;4.00;;;2.60;;
76752;SDS011;65687;51.308;16.916;2023-05-10T17:54:01;3.30;;;2.10;;
76752;SDS011;65687;51.308;16.916;2023-05-10T17:59:02;4.20;;;2.50;;
76752;SDS011;65687;51.308;16.916;2023-05-10T18:04:04;3.00;;;2.40;;
76752;SDS011;65687;51.308;16.916;2023-05-10T18:14:07;4.10;;;2.20;;
76752;SDS011;65687;51.308;16.916;2023-05-10T18:19:09;5.10;;;3.00;;
76752;SDS011;65687;51.308;16.916;2023-05-10T18:24:10;4.40;;;2.20;;
76752;SDS011;65687;51.308;16.916;2023-05-10T18:29:12;2.80;;;2.30;;
76752;SDS011;65687;51.308;16.916;2023-05-10T18:34:14;3.00;;;2.70;;
76752;SDS011;65687;51.308;16.916;2023-05-10T18:39:15;3.80;;;2.50;;
76752;SDS011;65687;51.308;16.916;2023-05-10T18:44:18;3.80;;;2.60;;
76752;SDS011;65687;51.308;16.916;2023-05-10T18:49:22;5.70;;;2.50;;
76752;SDS011;65687;51.308;16.916;2023-05-10T18:54:24;4.10;;;2.60;;
76752;SDS011;65687;51.308;16.916;2023-05-10T18:59:25;3.90;;;2.50;;
76752;SDS011;65687;51.308;16.916;2023-05-10T19:04:28;5.00;;;2.90;;
76752;SDS011;65687;51.308;16.916;2023-05-10T19:09:29;3.50;;;2.70;;
76752;SDS011;65687;51.308;16.916;2023-05-10T19:14:31;5.00;;;2.50;;
76752;SDS011;65687;51.308;16.916;2023-05-10T19:19:32;4.20;;;3.20;;
76752;SDS011;65687;51.308;16.916;2023-05-10T19:24:34;5.60;;;2.80;;
76752;SDS011;65687;51.308;16.916;2023-05-10T19:29:35;3.20;;;2.80;;
76752;SDS011;65687;51.308;16.916;2023-05-10T19:34:37;4.10;;;3.20;;
76752;SDS011;65687;51.308;16.916;2023-05-10T19:39:39;6.50;;;3.10;;
76752;SDS011;65687;51.308;16.916;2023-05-10T19:44:40;5.40;;;3.10;;
76752;SDS011;65687;51.308;16.916;2023-05-10T19:49:42;5.40;;;3.60;;
76752;SDS011;65687;51.308;16.916;2023-05-10T19:54:44;5.80;;;3.90;;
76752;SDS011;65687;51.308;16.916;2023-05-10T19:59:45;6.00;;;4.20;;
76752;SDS011;65687;51.308;16.916;2023-05-10T20:04:47;5.50;;;3.50;;
76752;SDS011;65687;51.308;16.916;2023-05-10T20:09:48;5.70;;;3.70;;
76752;SDS011;65687;51.308;16.916;2023-05-10T20:14:50;8.90;;;4.00;;
76752;SDS011;65687;51.308;16.916;2023-05-10T20:19:51;5.60;;;4.10;;
76752;SDS011;65687;51.308;16.916;2023-05-10T20:24:53;5.70;;;3.60;;
76752;SDS011;65687;51.308;16.916;2023-05-10T20:29:54;6.20;;;4.40;;
76752;SDS011;65687;51.308;16.916;2023-05-10T20:34:56;6.80;;;4.00;;
76752;SDS011;65687;51.308;16.916;2023-05-10T20:39:58;7.50;;;5.80;;
76752;SDS011;65687;51.308;16.916;2023-05-10T20:44:59;8.30;;;5.40;;
76752;SDS011;65687;51.308;16.916;2023-05-10T20:50:01;7.60;;;4.20;;
76752;SDS011;65687;51.308;16.916;2023-05-10T20:55:03;5.50;;;3.70;;
76752;SDS011;65687;51.308;16.916;2023-05-10T21:00:05;7.50;;;3.70;;
76752;SDS011;65687;51.308;16.916;2023-05-10T21:05:07;7.30;;;3.90;;
76752;SDS011;65687;51.308;16.916;2023-05-10T21:10:09;5.20;;;3.50;;
76752;SDS011;65687;51.308;16.916;2023-05-10T21:15:11;5.50;;;4.10;;
76752;SDS011;65687;51.308;16.916;2023-05-10T21:20:13;5.00;;;3.40;;
76752;SDS011;65687;51.308;16.916;2023-05-10T21:25:14;5.70;;;4.10;;
76752;SDS011;65687;51.308;16.916;2023-05-10T21:30:16;7.20;;;4.20;;
76752;SDS011;65687;51.308;16.916;2023-05-10T21:35:19;5.70;;;3.70;;
76752;SDS011;65687;51.308;16.916;2023-05-10T21:40:20;6.70;;;4.70;;
76752;SDS011;65687;51.308;16.916;2023-05-10T21:45:22;6.80;;;4.20;;
76752;SDS011;65687;51.308;16.916;2023-05-10T21:50:24;7.40;;;5.70;;
76752;SDS011;65687;51.308;16.916;2023-05-10T21:55:26;7.20;;;4.20;;
76752;SDS011;65687;51.308;16.916;2023-05-10T22:00:27;7.80;;;4.00;;
76752;SDS011;65687;51.308;16.916;2023-05-10T22:05:29;5.80;;;4.60;;
76752;SDS011;65687;51.308;16.916;2023-05-10T22:10:30;6.20;;;4.00;;
76752;SDS011;65687;51.308;16.916;2023-05-10T22:15:33;6.90;;;3.70;;
76752;SDS011;65687;51.308;16.916;2023-05-10T22:20:34;9.40;;;7.50;;
76752;SDS011;65687;51.308;16.916;2023-05-10T22:25:36;5.00;;;3.70;;
76752;SDS011;65687;51.308;16.916;2023-05-10T22:30:38;5.40;;;3.70;;
76752;SDS011;65687;51.308;16.916;2023-05-10T22:35:42;5.90;;;4.50;;
76752;SDS011;65687;51.308;16.916;2023-05-10T22:40:43;4.60;;;3.20;;
76752;SDS011;65687;51.308;16.916;2023-05-10T22:45:45;7.50;;;4.50;;
76752;SDS011;65687;51.308;16.916;2023-05-10T22:50:46;7.80;;;5.10;;
76752;SDS011;65687;51.308;16.916;2023-05-10T22:55:48;4.80;;;4.10;;
76752;SDS011;65687;51.308;16.916;2023-05-10T23:00:50;5.10;;;3.40;;
76752;SDS011;65687;51.308;16.916;2023-05-10T23:05:52;5.10;;;3.60;;
76752;SDS011;65687;51.308;16.916;2023-05-10T23:10:53;6.40;;;4.40;;
76752;SDS011;65687;51.308;16.916;2023-05-10T23:15:55;5.70;;;4.00;;
76752;SDS011;65687;51.308;16.916;2023-05-10T23:20:56;5.80;;;3.20;;
76752;SDS011;65687;51.308;16.916;2023-05-10T23:25:58;6.20;;;3.70;;
76752;SDS011;65687;51.308;16.916;2023-05-10T23:30:59;7.50;;;5.30;;
76752;SDS011;65687;51.308;16.916;2023-05-10T23:36:01;7.90;;;4.30;;
76752;SDS011;65687;51.308;16.916;2023-05-10T23:41:02;6.00;;;4.20;;
76752;SDS011;65687;51.308;16.916;2023-05-10T23:46:04;8.10;;;4.40;;
76752;SDS011;65687;51.308;16.916;2023-05-10T23:51:06;5.60;;;4.10;;
76752;SDS011;65687;51.308;16.916;2023-05-10T23:56:08;9.10;;;6.10;;
